createdAt,value
2022-08-20T00:01:01.593Z,100582.50
2022-08-20T00:03:28.846Z,100574.31
2022-08-20T00:05:56.684Z,100563.38
2022-08-20T00:08:23.347Z,100555.81
2022-08-20T00:10:53.637Z,100557.44
2022-08-20T00:13:21.878Z,100558.22
2022-08-20T00:15:48.232Z,100562.88
2022-08-20T00:18:14.922Z,100556.31
2022-08-20T00:20:41.268Z,100556.31
2022-08-20T00:23:10.502Z,100557.72
2022-08-20T00:25:37.383Z,100560.66
2022-08-20T00:28:03.746Z,100568.06
2022-08-20T00:30:30.138Z,100568.06
2022-08-20T00:32:56.466Z,100565.31
2022-08-20T00:35:22.846Z,100569.69
2022-08-20T00:37:49.288Z,100563.69
2022-08-20T00:40:22.375Z,100571.88
2022-08-20T00:42:49.195Z,100567.81
2022-08-20T00:45:15.552Z,100570.25
2022-08-20T00:47:41.849Z,100562.06
2022-08-20T00:50:17.675Z,100567.03
2022-08-20T00:52:49.958Z,100566.19
2022-08-20T00:55:16.614Z,100565.41
2022-08-20T00:57:59.732Z,100566.19
2022-08-20T01:00:27.942Z,100571.38
2022-08-20T01:02:55.825Z,100568.13
2022-08-20T01:05:22.401Z,100569.47
2022-08-20T01:07:56.440Z,100569.47
2022-08-20T01:10:23.582Z,100572.19
2022-08-20T01:12:53.219Z,100565.91
2022-08-20T01:15:30.786Z,100567.81
2022-08-20T01:17:57.830Z,100567.31
2022-08-20T01:23:08.856Z,100564.88
2022-08-20T01:25:35.307Z,100561.84
2022-08-20T01:28:02.235Z,100554.50
2022-08-20T01:30:29.034Z,100562.69
2022-08-20T01:32:55.436Z,100565.69
2022-08-20T01:35:22.033Z,100565.41
2022-08-20T01:37:48.667Z,100566.50
2022-08-20T01:40:15.292Z,100561.84
2022-08-20T01:42:52.793Z,100562.69
2022-08-20T01:45:27.689Z,100573.25
2022-08-20T01:47:54.753Z,100577.13
2022-08-20T01:50:21.270Z,100570.88
2022-08-20T01:52:47.582Z,100568.44
2022-08-20T01:55:14.007Z,100575.78
2022-08-20T01:57:40.638Z,100573.28
2022-08-20T02:00:07.645Z,100572.78
2022-08-20T02:02:37.339Z,100580.44
2022-08-20T02:05:03.726Z,100585.09
2022-08-20T02:07:30.127Z,100589.72
2022-08-20T02:09:56.583Z,100596.00
2022-08-20T02:12:23.090Z,100601.47
2022-08-20T02:14:49.805Z,100599.84
2022-08-20T02:17:16.793Z,100597.13
2022-08-20T02:19:43.218Z,100594.41
2022-08-20T02:22:10.671Z,100592.16
2022-08-20T02:24:37.083Z,100593.28
2022-08-20T02:27:03.709Z,100587.28
2022-08-20T02:29:30.387Z,100581.25
2022-08-20T02:32:25.009Z,100577.69
2022-08-20T02:34:43.326Z,100579.63
2022-08-20T02:37:09.886Z,100572.56
2022-08-20T02:39:36.285Z,100583.47
2022-08-20T02:42:02.889Z,100588.09
2022-08-20T02:44:29.234Z,100585.38
2022-08-20T02:46:55.610Z,100581.53
2022-08-20T02:49:22.088Z,100581.53
2022-08-20T02:51:48.486Z,100585.38
2022-08-20T02:54:15.044Z,100584.06
2022-08-20T02:56:41.470Z,100581.81
2022-08-20T02:59:07.798Z,100579.38
2022-08-20T03:01:34.296Z,100576.38
2022-08-20T03:04:00.652Z,100576.09
2022-08-20T03:06:27.014Z,100571.44
2022-08-20T03:08:53.382Z,100561.94
2022-08-20T03:11:19.794Z,100561.63
2022-08-20T03:13:46.106Z,100558.38
2022-08-20T03:16:12.708Z,100559.50
2022-08-20T03:18:39.014Z,100563.56
2022-08-20T03:21:05.475Z,100554.03
2022-08-20T03:23:32.393Z,100558.38
2022-08-20T03:26:01.501Z,100552.91
2022-08-20T03:28:29.733Z,100554.03
2022-08-20T03:30:56.006Z,100546.06
2022-08-20T03:33:22.354Z,100540.38
2022-08-20T03:35:48.641Z,100537.94
2022-08-20T03:38:15.066Z,100551.31
2022-08-20T03:40:41.379Z,100539.28
2022-08-20T03:43:07.729Z,100542.00
2022-08-20T03:45:34.087Z,100547.75
2022-08-20T03:48:00.354Z,100551.81
2022-08-20T03:50:26.802Z,100554.03
2022-08-20T03:52:53.242Z,100561.41
2022-08-20T03:55:19.667Z,100557.34
2022-08-20T04:00:30.126Z,100560.91
2022-08-20T04:02:56.522Z,100561.69
2022-08-20T04:05:22.850Z,100565.53
2022-08-20T04:07:54.119Z,100569.09
2022-08-20T04:10:22.493Z,100569.88
2022-08-20T04:12:53.165Z,100563.84
2022-08-20T04:15:19.926Z,100567.69
2022-08-20T04:17:47.538Z,100576.38
2022-08-20T04:20:14.165Z,100570.41
2022-08-20T04:22:40.522Z,100571.53
2022-08-20T04:25:07.477Z,100573.72
2022-08-20T04:27:34.089Z,100566.66
2022-08-20T04:30:00.473Z,100580.59
2022-08-20T04:32:26.990Z,100573.22
2022-08-20T04:34:53.342Z,100576.75
2022-08-20T04:37:19.711Z,100585.47
2022-08-20T04:39:46.126Z,100587.66
2022-08-20T04:42:12.615Z,100573.22
2022-08-20T04:44:38.992Z,100580.88
2022-08-20T04:47:05.447Z,100593.41
2022-08-20T04:49:31.760Z,100591.50
2022-08-20T04:51:58.091Z,100591.28
2022-08-20T04:54:24.484Z,100587.16
2022-08-20T04:56:50.915Z,100593.72
2022-08-20T04:59:17.256Z,100599.47
2022-08-20T05:01:43.684Z,100597.25
2022-08-20T05:04:10.042Z,100601.91
2022-08-20T05:06:36.595Z,100597.13
2022-08-20T05:09:02.987Z,100598.84
2022-08-20T05:11:35.430Z,100603.53
2022-08-20T05:14:03.002Z,100614.53
2022-08-20T05:16:29.521Z,100613.25
2022-08-20T05:18:55.809Z,100607.28
2022-08-20T05:21:22.168Z,100606.69
2022-08-20T05:23:48.565Z,100605.13
2022-08-20T05:26:14.901Z,100604.84
2022-08-20T05:28:53.914Z,100610.53
2022-08-20T05:31:24.652Z,100619.31
2022-08-20T05:33:59.174Z,100615.69
2022-08-20T05:36:25.729Z,100612.09
2022-08-20T05:38:52.259Z,100612.38
2022-08-20T05:41:27.675Z,100614.28
2022-08-20T05:43:56.113Z,100613.78
2022-08-20T05:46:22.446Z,100618.41
2022-08-20T05:48:50.028Z,100628.75
2022-08-20T05:51:16.631Z,100624.63
2022-08-20T05:53:42.985Z,100630.66
2022-08-20T05:56:09.735Z,100629.78
2022-08-20T05:58:36.179Z,100630.59
2022-08-20T06:01:02.672Z,100628.97
2022-08-20T06:03:29.177Z,100631.91
2022-08-20T06:05:55.722Z,100636.59
2022-08-20T06:08:22.231Z,100633.69
2022-08-20T06:10:48.623Z,100642.69
2022-08-20T06:13:15.030Z,100637.69
2022-08-20T06:15:41.402Z,100633.03
2022-08-20T06:18:12.364Z,100636.59
2022-08-20T06:20:54.167Z,100634.66
2022-08-20T06:23:20.996Z,100634.66
2022-08-20T06:25:47.415Z,100635.47
2022-08-20T06:28:13.775Z,100634.66
2022-08-20T06:30:40.374Z,100637.09
2022-08-20T06:33:06.846Z,100641.75
2022-08-20T06:35:33.206Z,100642.03
2022-08-20T06:37:59.551Z,100645.06
2022-08-20T06:40:25.881Z,100649.19
2022-08-20T06:42:52.402Z,100653.91
2022-08-20T06:45:18.846Z,100647.63
2022-08-20T06:47:45.498Z,100654.13
2022-08-20T06:50:13.966Z,100648.16
2022-08-20T06:52:53.030Z,100651.09
2022-08-20T06:55:26.783Z,100651.63
2022-08-20T06:57:53.451Z,100652.97
2022-08-20T07:00:19.904Z,100656.63
2022-08-20T07:02:46.253Z,100662.56
2022-08-20T07:05:12.619Z,100658.25
2022-08-20T07:07:39.153Z,100663.13
2022-08-20T07:10:05.506Z,100664.75
2022-08-20T07:12:31.876Z,100671.03
2022-08-20T07:14:58.179Z,100675.09
2022-08-20T07:17:24.467Z,100669.16
2022-08-20T07:19:50.833Z,100671.09
2022-08-20T07:22:17.145Z,100671.31
2022-08-20T07:24:48.529Z,100674.69
2022-08-20T07:27:15.414Z,100663.69
2022-08-20T07:29:41.757Z,100667.19
2022-08-20T07:32:08.218Z,100674.69
2022-08-20T07:34:36.088Z,100664.53
2022-08-20T07:37:02.493Z,100673.75
2022-08-20T07:39:30.044Z,100675.66
2022-08-20T07:41:58.541Z,100668.59
2022-08-20T07:44:28.503Z,100666.41
2022-08-20T07:46:57.562Z,100670.50
2022-08-20T07:49:23.994Z,100671.59
2022-08-20T07:51:50.350Z,100676.25
2022-08-20T07:54:16.710Z,100680.38
2022-08-20T07:56:43.073Z,100681.19
2022-08-20T07:59:09.670Z,100683.06
2022-08-20T08:01:36.083Z,100686.06
2022-08-20T08:04:02.479Z,100679.28
2022-08-20T08:06:30.997Z,100688.25
2022-08-20T08:08:57.866Z,100693.78
2022-08-20T08:11:24.322Z,100691.06
2022-08-20T08:13:50.829Z,100689.38
2022-08-20T08:16:17.283Z,100694.84
2022-08-20T08:18:43.650Z,100691.59
2022-08-20T08:21:10.214Z,100688.81
2022-08-20T08:23:36.561Z,100702.97
2022-08-20T08:26:03.317Z,100700.00
2022-08-20T08:28:29.705Z,100699.72
2022-08-20T08:30:56.061Z,100698.25
2022-08-20T08:33:22.643Z,100703.44
2022-08-20T08:35:52.209Z,100708.66
2022-08-20T08:38:18.558Z,100717.13
2022-08-20T08:40:44.890Z,100715.75
2022-08-20T08:43:11.253Z,100718.53
2022-08-20T08:45:38.574Z,100710.84
2022-08-20T08:48:05.414Z,100718.44
2022-08-20T08:50:53.529Z,100717.59
2022-08-20T08:53:18.346Z,100721.47
2022-08-20T08:55:44.746Z,100714.97
2022-08-20T08:58:16.850Z,100716.81
2022-08-20T09:00:47.343Z,100726.84
2022-08-20T09:03:23.122Z,100712.97
2022-08-20T09:05:49.520Z,100724.94
2022-08-20T09:08:17.171Z,100724.66
2022-08-20T09:10:43.910Z,100727.59
2022-08-20T09:13:10.402Z,100729.81
2022-08-20T09:15:37.053Z,100737.47
2022-08-20T09:18:03.481Z,100725.75
2022-08-20T09:20:29.895Z,100733.34
2022-08-20T09:22:56.423Z,100730.91
2022-08-20T09:25:22.867Z,100730.84
2022-08-20T09:27:49.257Z,100737.25
2022-08-20T09:30:17.288Z,100732.63
2022-08-20T09:32:46.222Z,100733.47
2022-08-20T09:35:12.507Z,100736.22
2022-08-20T09:37:38.870Z,100739.44
2022-08-20T09:42:59.536Z,100740.09
2022-08-20T09:45:26.037Z,100740.31
2022-08-20T09:47:56.646Z,100744.16
2022-08-20T09:50:24.134Z,100742.00
2022-08-20T09:52:51.123Z,100741.72
2022-08-20T09:55:20.012Z,100740.88
2022-08-20T09:57:46.451Z,100739.25
2022-08-20T10:00:12.802Z,100734.91
2022-08-20T10:02:39.138Z,100737.34
2022-08-20T10:05:05.442Z,100743.31
2022-08-20T10:07:33.861Z,100738.72
2022-08-20T10:10:00.293Z,100737.47
2022-08-20T10:12:26.659Z,100736.69
2022-08-20T10:14:53.021Z,100745.38
2022-08-20T10:17:19.402Z,100736.06
2022-08-20T10:19:45.813Z,100734.44
2022-08-20T10:22:12.297Z,100733.63
2022-08-20T10:24:38.706Z,100745.38
2022-08-20T10:27:05.281Z,100741.25
2022-08-20T10:29:31.585Z,100743.75
2022-08-20T10:31:57.893Z,100742.63
2022-08-20T10:34:24.202Z,100744.44
2022-08-20T10:36:50.551Z,100747.34
2022-08-20T10:39:16.849Z,100757.19
2022-08-20T10:41:43.266Z,100759.09
2022-08-20T10:44:09.737Z,100756.69
2022-08-20T10:46:36.163Z,100753.63
2022-08-20T10:49:02.821Z,100751.19
2022-08-20T10:51:32.776Z,100752.81
2022-08-20T10:53:59.371Z,100749.19
2022-08-20T10:56:25.928Z,100749.72
2022-08-20T10:58:52.282Z,100747.25
2022-08-20T11:01:31.264Z,100739.41
2022-08-20T11:04:00.505Z,100745.47
2022-08-20T11:06:26.849Z,100738.88
2022-08-20T11:08:53.280Z,100744.91
2022-08-20T11:11:23.362Z,100745.16
2022-08-20T11:13:49.657Z,100750.31
2022-08-20T11:16:16.066Z,100745.00
2022-08-20T11:18:47.382Z,100759.69
2022-08-20T11:21:14.489Z,100756.19
2022-08-20T11:23:41.053Z,100762.53
2022-08-20T11:26:07.413Z,100758.75
2022-08-20T11:28:33.790Z,100763.97
2022-08-20T11:31:00.171Z,100773.47
2022-08-20T11:33:26.687Z,100773.53
2022-08-20T11:35:53.010Z,100768.69
2022-08-20T11:38:19.318Z,100767.63
2022-08-20T11:40:45.614Z,100766.78
2022-08-20T11:43:16.426Z,100766.50
2022-08-20T11:45:43.180Z,100764.91
2022-08-20T11:48:09.570Z,100763.88
2022-08-20T11:50:35.950Z,100768.75
2022-08-20T11:53:02.264Z,100763.31
2022-08-20T11:55:30.553Z,100764.13
2022-08-20T11:57:59.696Z,100774.16
2022-08-20T12:00:31.763Z,100768.97
2022-08-20T12:02:59.990Z,100781.25
2022-08-20T12:05:26.628Z,100780.88
2022-08-20T12:07:53.169Z,100779.81
2022-08-20T12:10:19.502Z,100777.59
2022-08-20T12:12:46.498Z,100775.06
2022-08-20T12:15:12.866Z,100780.13
2022-08-20T12:17:39.434Z,100783.81
2022-08-20T12:20:05.773Z,100777.03
2022-08-20T12:22:32.226Z,100783.72
2022-08-20T12:24:58.625Z,100783.69
2022-08-20T12:27:24.997Z,100787.63
2022-08-20T12:29:51.531Z,100778.44
2022-08-20T12:32:17.992Z,100778.25
2022-08-20T12:34:44.342Z,100778.22
2022-08-20T12:37:12.861Z,100782.91
2022-08-20T12:39:44.382Z,100781.59
2022-08-20T12:42:10.766Z,100775.44
2022-08-20T12:44:37.109Z,100778.56
2022-08-20T12:47:03.538Z,100782.63
2022-08-20T12:49:29.926Z,100780.53
2022-08-20T12:51:56.281Z,100785.88
2022-08-20T12:54:22.657Z,100785.59
2022-08-20T12:56:49.038Z,100784.03
2022-08-20T12:59:15.403Z,100784.09
2022-08-20T13:01:41.808Z,100785.09
2022-08-20T13:04:08.286Z,100779.97
2022-08-20T13:06:34.634Z,100782.38
2022-08-20T13:09:00.958Z,100778.13
2022-08-20T13:11:27.497Z,100773.44
2022-08-20T13:13:53.978Z,100781.09
2022-08-20T13:16:20.313Z,100775.41
2022-08-20T13:18:46.650Z,100780.81
2022-08-20T13:21:13.063Z,100782.97
2022-08-20T13:23:39.365Z,100788.47
2022-08-20T13:26:12.589Z,100777.22
2022-08-20T13:28:38.918Z,100780.28
2022-08-20T13:31:05.269Z,100781.44
2022-08-20T13:33:31.579Z,100775.47
2022-08-20T13:35:58.143Z,100782.00
2022-08-20T13:38:24.479Z,100774.66
2022-08-20T13:40:51.274Z,100771.56
2022-08-20T13:43:17.666Z,100782.50
2022-08-20T13:45:43.977Z,100785.28
2022-08-20T13:48:14.682Z,100783.47
2022-08-20T13:50:41.950Z,100780.59
2022-08-20T13:53:08.297Z,100788.31
2022-08-20T13:55:34.649Z,100781.59
2022-08-20T13:58:05.128Z,100780.41
2022-08-20T14:00:32.364Z,100779.19
2022-08-20T14:02:59.094Z,100780.81
2022-08-20T14:05:25.665Z,100774.31
2022-08-20T14:07:52.275Z,100773.78
2022-08-20T14:10:18.610Z,100782.38
2022-08-20T14:12:45.788Z,100777.41
2022-08-20T14:15:12.155Z,100779.75
2022-08-20T14:17:38.575Z,100780.88
2022-08-20T14:20:05.222Z,100783.31
2022-08-20T14:22:32.974Z,100787.94
2022-08-20T14:24:59.297Z,100791.25
2022-08-20T14:27:30.680Z,100797.13
2022-08-20T14:29:57.804Z,100797.50
2022-08-20T14:32:24.266Z,100792.72
2022-08-20T14:34:50.626Z,100795.56
2022-08-20T14:37:17.013Z,100788.47
2022-08-20T14:42:27.114Z,100798.84
2022-08-20T14:44:53.407Z,100802.44
2022-08-20T14:47:19.793Z,100802.44
2022-08-20T14:49:46.068Z,100808.72
2022-08-20T14:52:12.595Z,100808.03
2022-08-20T14:54:38.910Z,100811.38
2022-08-20T14:57:05.436Z,100801.59
2022-08-20T14:59:39.253Z,100802.09
2022-08-20T15:02:05.565Z,100806.75
2022-08-20T15:04:31.866Z,100801.53
2022-08-20T15:06:59.096Z,100804.09
2022-08-20T15:09:37.562Z,100804.88
2022-08-20T15:12:04.116Z,100798.56
2022-08-20T15:14:30.468Z,100803.00
2022-08-20T15:16:57.981Z,100799.84
2022-08-20T15:19:24.600Z,100806.91
2022-08-20T15:21:50.932Z,100805.84
2022-08-20T15:24:19.576Z,100812.50
2022-08-20T15:26:46.452Z,100802.09
2022-08-20T15:29:12.870Z,100810.97
2022-08-20T15:31:49.578Z,100807.31
2022-08-20T15:34:17.750Z,100820.19
2022-08-20T15:36:44.918Z,100818.00
2022-08-20T15:39:11.331Z,100813.00
2022-08-20T15:41:37.680Z,100811.50
2022-08-20T15:44:04.106Z,100812.88
2022-08-20T15:46:33.537Z,100815.03
2022-08-20T15:49:04.003Z,100814.72
2022-08-20T15:51:30.390Z,100833.59
2022-08-20T15:53:56.722Z,100833.03
2022-08-20T15:56:23.068Z,100831.44
2022-08-20T15:58:49.574Z,100825.13
2022-08-20T16:01:25.406Z,100827.03
2022-08-20T16:03:52.197Z,100830.63
2022-08-20T16:06:18.566Z,100824.03
2022-08-20T16:08:44.974Z,100821.28
2022-08-20T16:11:11.434Z,100825.41
2022-08-20T16:13:37.821Z,100814.56
2022-08-20T16:16:05.421Z,100818.84
2022-08-20T16:18:31.833Z,100821.63
2022-08-20T16:21:03.083Z,100824.06
2022-08-20T16:23:30.036Z,100831.09
2022-08-20T16:25:56.438Z,100828.69
2022-08-20T16:28:22.985Z,100824.91
2022-08-20T16:30:49.327Z,100822.50
2022-08-20T16:33:15.714Z,100829.56
2022-08-20T16:35:42.027Z,100826.50
2022-08-20T16:38:08.818Z,100834.97
2022-08-20T16:40:35.266Z,100829.56
2022-08-20T16:43:01.631Z,100832.03
2022-08-20T16:45:28.062Z,100829.56
2022-08-20T16:47:54.517Z,100829.84
2022-08-20T16:50:21.087Z,100827.06
2022-08-20T16:52:47.548Z,100830.38
2022-08-20T16:55:14.764Z,100832.03
2022-08-20T16:57:41.124Z,100828.50
2022-08-20T17:00:07.605Z,100832.81
2022-08-20T17:02:34.010Z,100830.38
2022-08-20T17:05:00.462Z,100837.75
2022-08-20T17:07:29.844Z,100840.22
2022-08-20T17:09:59.782Z,100842.09
2022-08-20T17:12:29.192Z,100846.41
2022-08-20T17:14:55.565Z,100848.38
2022-08-20T17:17:21.926Z,100851.13
2022-08-20T17:19:48.255Z,100863.41
2022-08-20T17:22:16.984Z,100853.25
2022-08-20T17:24:43.457Z,100858.75
2022-08-20T17:27:10.210Z,100865.53
2022-08-20T17:29:37.020Z,100866.66
2022-08-20T17:32:03.646Z,100868.84
2022-08-20T17:34:29.991Z,100864.69
2022-08-20T17:36:56.365Z,100863.88
2022-08-20T17:39:22.809Z,100862.50
2022-08-20T17:41:49.227Z,100863.34
2022-08-20T17:44:15.791Z,100861.97
2022-08-20T17:46:42.095Z,100858.69
2022-08-20T17:49:08.457Z,100858.13
2022-08-20T17:51:34.857Z,100857.84
2022-08-20T17:54:04.004Z,100854.63
2022-08-20T17:56:30.403Z,100864.41
2022-08-20T17:59:03.208Z,100866.56
2022-08-20T18:01:30.051Z,100865.53
2022-08-20T18:03:56.498Z,100867.47
2022-08-20T18:06:26.165Z,100868.53
2022-08-20T18:08:55.185Z,100870.94
2022-08-20T18:11:22.268Z,100877.00
2022-08-20T18:13:48.754Z,100879.19
2022-08-20T18:16:17.084Z,100884.84
2022-08-20T18:18:50.900Z,100887.63
2022-08-20T18:21:23.706Z,100892.44
2022-08-20T18:23:50.058Z,100901.59
2022-08-20T18:26:16.512Z,100905.94
2022-08-20T18:28:43.072Z,100902.66
2022-08-20T18:31:09.601Z,100911.38
2022-08-20T18:33:36.208Z,100910.00
2022-08-20T18:36:02.602Z,100919.56
2022-08-20T18:38:29.134Z,100908.66
2022-08-20T18:40:55.532Z,100911.38
2022-08-20T18:43:21.934Z,100916.28
2022-08-20T18:45:48.363Z,100907.84
2022-08-20T18:48:14.758Z,100898.31
2022-08-20T18:50:41.116Z,100913.84
2022-08-20T18:53:07.673Z,100909.22
2022-08-20T18:55:34.122Z,100910.34
2022-08-20T18:58:00.992Z,100911.94
2022-08-20T19:00:30.556Z,100915.78
2022-08-20T19:02:57.288Z,100923.91
2022-08-20T19:05:23.830Z,100911.66
2022-08-20T19:07:50.124Z,100923.69
2022-08-20T19:10:23.891Z,100922.59
2022-08-20T19:12:54.653Z,100916.06
2022-08-20T19:15:20.981Z,100922.84
2022-08-20T19:17:47.346Z,100923.97
2022-08-20T19:20:13.927Z,100913.91
2022-08-20T19:22:40.288Z,100920.13
2022-08-20T19:25:06.731Z,100920.69
2022-08-20T19:27:33.193Z,100921.25
2022-08-20T19:29:59.516Z,100927.22
2022-08-20T19:32:25.865Z,100929.94
2022-08-20T19:34:52.197Z,100929.94
2022-08-20T19:37:35.348Z,100929.41
2022-08-20T19:40:04.971Z,100926.41
2022-08-20T19:42:31.923Z,100923.97
2022-08-20T19:47:48.810Z,100919.91
2022-08-20T19:50:15.340Z,100920.69
2022-08-20T19:52:41.867Z,100921.25
2022-08-20T19:55:08.236Z,100917.47
2022-08-20T19:57:34.793Z,100919.06
2022-08-20T20:00:01.134Z,100923.97
2022-08-20T20:02:27.874Z,100916.91
2022-08-20T20:04:54.886Z,100918.00
2022-08-20T20:07:22.421Z,100922.63
2022-08-20T20:09:49.326Z,100924.00
2022-08-20T20:12:22.658Z,100918.50
2022-08-20T20:14:49.543Z,100919.63
2022-08-20T20:17:21.033Z,100918.25
2022-08-20T20:19:49.338Z,100927.28
2022-08-20T20:22:19.293Z,100925.34
2022-08-20T20:24:46.617Z,100918.56
2022-08-20T20:27:14.818Z,100925.06
2022-08-20T20:29:46.393Z,100924.28
2022-08-20T20:32:12.736Z,100927.81
2022-08-20T20:34:55.770Z,100923.44
2022-08-20T20:37:34.795Z,100923.44
2022-08-20T20:40:19.074Z,100927.00
2022-08-20T20:42:46.162Z,100928.91
2022-08-20T20:45:12.594Z,100927.28
2022-08-20T20:47:38.961Z,100930.03
2022-08-20T20:50:05.358Z,100923.72
2022-08-20T20:52:32.207Z,100921.84
2022-08-20T20:54:58.585Z,100929.19
2022-08-20T20:57:32.671Z,100925.94
2022-08-20T21:00:04.694Z,100919.63
2022-08-20T21:02:31.782Z,100913.69
2022-08-20T21:04:58.177Z,100917.44
2022-08-20T21:07:24.485Z,100918.59
2022-08-20T21:09:50.947Z,100908.25
2022-08-20T21:12:17.398Z,100906.03
2022-08-20T21:14:43.709Z,100909.31
2022-08-20T21:17:10.218Z,100902.78
2022-08-20T21:19:40.252Z,100896.19
2022-08-20T21:22:11.712Z,100895.16
2022-08-20T21:24:38.034Z,100898.44
2022-08-20T21:27:04.553Z,100904.41
2022-08-20T21:29:32.737Z,100901.41
2022-08-20T21:31:59.490Z,100895.69
2022-08-20T21:34:25.790Z,100899.50
2022-08-20T21:36:52.637Z,100898.41
2022-08-20T21:39:20.710Z,100891.88
2022-08-20T21:41:47.007Z,100896.22
2022-08-20T21:44:13.318Z,100887.78
2022-08-20T21:46:39.738Z,100890.50
2022-08-20T21:49:06.277Z,100884.78
2022-08-20T21:51:33.095Z,100883.69
2022-08-20T21:53:59.527Z,100882.03
2022-08-20T21:56:26.042Z,100887.19
2022-08-20T21:58:55.136Z,100878.81
2022-08-20T22:01:21.708Z,100873.88
2022-08-20T22:03:50.492Z,100878.25
2022-08-20T22:06:18.321Z,100879.59
2022-08-20T22:08:44.726Z,100882.09
2022-08-20T22:11:11.139Z,100877.38
2022-08-20T22:13:37.710Z,100881.78
2022-08-20T22:16:04.548Z,100877.69
2022-08-20T22:18:31.064Z,100878.00
2022-08-20T22:20:57.771Z,100877.19
2022-08-20T22:23:24.129Z,100879.91
2022-08-20T22:25:50.500Z,100882.91
2022-08-20T22:28:16.818Z,100874.47
2022-08-20T22:30:43.931Z,100876.88
2022-08-20T22:33:10.268Z,100868.69
2022-08-20T22:35:36.698Z,100873.94
2022-08-20T22:38:03.180Z,100865.97
2022-08-20T22:40:29.628Z,100868.22
2022-08-20T22:42:56.049Z,100861.91
2022-08-20T22:45:22.357Z,100866.28
2022-08-20T22:47:48.701Z,100868.13
2022-08-20T22:50:15.016Z,100865.72
2022-08-20T22:52:41.338Z,100865.22
2022-08-20T22:55:07.747Z,100870.94
2022-08-20T22:57:35.942Z,100867.66
2022-08-20T23:00:02.513Z,100869.31
2022-08-20T23:02:32.233Z,100875.06
2022-08-20T23:04:58.603Z,100881.03
2022-08-20T23:07:24.939Z,100875.59
2022-08-20T23:09:51.297Z,100877.19
2022-08-20T23:12:17.789Z,100884.88
2022-08-20T23:14:44.142Z,100884.63
2022-08-20T23:17:13.396Z,100876.66
2022-08-20T23:19:40.226Z,100878.09
2022-08-20T23:22:06.978Z,100881.28
2022-08-20T23:24:33.383Z,100878.34
2022-08-20T23:27:00.178Z,100885.41
2022-08-20T23:29:26.718Z,100887.06
2022-08-20T23:31:53.131Z,100883.25
2022-08-20T23:34:19.510Z,100884.06
2022-08-20T23:36:45.858Z,100884.06
2022-08-20T23:39:12.200Z,100887.06
2022-08-20T23:41:38.582Z,100886.00
2022-08-20T23:44:25.453Z,100890.84
2022-08-20T23:46:53.187Z,100880.50
2022-08-20T23:49:21.018Z,100885.44
2022-08-20T23:54:37.992Z,100870.41
2022-08-20T23:57:08.329Z,100863.34
2022-08-20T23:59:34.965Z,100863.59
